Time;durP1;ratioP1;P1;durP2;ratioP2;P2;SDS_P1;SDS_P2;PMS_P1;PMS_P2;Temp;Humidity;BMP_temperature;BMP_pressure;BME280_temperature;BME280_humidity;BME280_pressure;Samples;Min_cycle;Max_cycle;Signal;HPM_P1;HPM_P2
2022/12/30 00:00:50;;;;;;;8.60;1.58;;;6.00;99.90;;;;;;5016498;28;20548;-73
2022/12/30 00:03:16;;;;;;;10.98;1.95;;;6.00;99.90;;;;;;5008226;28;20079;-71
2022/12/30 00:05:42;;;;;;;23.52;2.55;;;5.90;99.90;;;;;;5019622;28;20029;-73
2022/12/30 00:08:45;;;;;;;8.40;1.65;;;5.90;99.90;;;;;;5001017;28;20053;-72
2022/12/30 00:10:53;;;;;;;8.43;1.88;;;5.90;99.90;;;;;;5012860;28;20029;-71
2022/12/30 00:35:20;;;;;;;4.43;0.95;;;5.80;99.90;;;;;;5013270;28;20049;-71
2022/12/30 00:37:46;;;;;;;16.20;2.63;;;5.70;99.90;;;;;;5018109;28;20030;-72
2022/12/30 00:40:12;;;;;;;8.73;0.80;;;5.70;99.90;;;;;;5020625;28;20048;-72
2022/12/30 00:45:25;;;;;;;11.27;2.67;;;5.70;99.90;;;;;;5017239;28;20044;-72
2022/12/30 00:47:51;;;;;;;6.70;1.75;;;5.80;99.90;;;;;;5019041;28;20425;-72
2022/12/30 00:58:29;;;;;;;9.32;1.17;;;5.80;99.90;;;;;;5020292;28;20037;-72
2022/12/30 01:00:56;;;;;;;12.43;1.70;;;5.70;99.90;;;;;;5017676;28;20033;-72
2022/12/30 01:03:21;;;;;;;8.18;1.00;;;5.70;99.90;;;;;;5018549;28;20029;-71
2022/12/30 01:05:47;;;;;;;7.07;1.02;;;5.70;99.90;;;;;;5019199;28;20045;-71
2022/12/30 01:08:12;;;;;;;15.82;1.13;;;5.70;99.90;;;;;;5017230;28;20033;-72
2022/12/30 01:10:39;;;;;;;13.20;2.00;;;5.70;99.90;;;;;;5016200;28;20120;-73
2022/12/30 01:13:05;;;;;;;11.05;1.52;;;5.70;99.90;;;;;;5017355;28;20995;-71
2022/12/30 01:15:30;;;;;;;9.23;1.50;;;5.70;99.90;;;;;;5020552;28;20125;-71
2022/12/30 01:17:56;;;;;;;10.00;1.55;;;5.70;99.90;;;;;;5019182;28;20069;-71
2022/12/30 01:20:21;;;;;;;10.13;1.38;;;5.70;99.90;;;;;;5018182;28;20114;-71
2022/12/30 01:22:47;;;;;;;6.38;1.35;;;5.70;99.90;;;;;;5018122;28;20077;-71
2022/12/30 01:25:12;;;;;;;8.02;1.02;;;5.70;99.90;;;;;;5018556;28;20180;-73
2022/12/30 01:27:38;;;;;;;23.92;3.67;;;5.70;99.90;;;;;;5009443;28;20049;-71
2022/12/30 01:30:04;;;;;;;4.43;1.33;;;5.70;99.90;;;;;;5002797;28;20033;-71
2022/12/30 01:32:30;;;;;;;8.38;2.15;;;5.70;99.90;;;;;;5016546;28;20049;-72
2022/12/30 01:34:57;;;;;;;10.05;1.00;;;5.70;99.90;;;;;;5018961;28;20033;-72
2022/12/30 01:37:23;;;;;;;11.88;1.67;;;5.70;99.90;;;;;;5017689;28;20073;-72
2022/12/30 01:39:49;;;;;;;11.18;1.55;;;5.70;99.90;;;;;;5015157;28;20039;-72
2022/12/30 01:42:21;;;;;;;8.13;0.80;;;5.70;99.90;;;;;;5017216;28;20038;-71
2022/12/30 01:44:57;;;;;;;10.82;1.15;;;5.70;99.90;;;;;;5016708;28;20037;-71
2022/12/30 01:47:54;;;;;;;4.43;1.27;;;5.70;99.90;;;;;;5018769;28;20038;-71
2022/12/30 01:50:31;;;;;;;10.27;1.40;;;5.70;99.90;;;;;;5007943;28;20034;-72
2022/12/30 01:53:20;;;;;;;9.00;1.95;;;5.70;99.90;;;;;;5018866;28;20033;-72
2022/12/30 01:55:55;;;;;;;9.57;1.10;;;5.70;99.90;;;;;;5015202;28;20034;-70
2022/12/30 01:59:07;;;;;;;7.90;0.80;;;5.70;99.90;;;;;;5017757;28;20092;-70
2022/12/30 02:01:34;;;;;;;9.48;1.45;;;5.70;99.90;;;;;;4990122;28;20037;-72
2022/12/30 02:04:04;;;;;;;13.93;2.28;;;5.70;99.90;;;;;;5011034;28;20052;-72
2022/12/30 02:07:04;;;;;;;6.13;0.93;;;5.70;99.90;;;;;;5012320;28;20060;-70
2022/12/30 02:09:31;;;;;;;10.05;1.83;;;5.70;99.90;;;;;;5015455;28;20034;-72
2022/12/30 02:11:58;;;;;;;14.07;1.63;;;5.80;99.90;;;;;;5019127;28;20061;-71
2022/12/30 02:14:25;;;;;;;9.43;1.35;;;5.70;99.90;;;;;;5016098;28;20044;-71
2022/12/30 02:17:22;;;;;;;9.73;1.75;;;5.70;99.90;;;;;;5017329;28;20080;-71
2022/12/30 02:20:04;;;;;;;8.45;1.30;;;5.70;99.90;;;;;;5019372;28;20038;-72
2022/12/30 02:23:17;;;;;;;20.00;1.15;;;5.70;99.90;;;;;;5013190;28;20033;-72
2022/12/30 02:26:04;;;;;;;10.25;2.13;;;5.70;99.90;;;;;;5010310;28;20041;-71
2022/12/30 02:29:02;;;;;;;12.82;1.10;;;5.80;99.90;;;;;;5011738;28;20070;-71
2022/12/30 02:31:40;;;;;;;10.40;1.27;;;5.70;99.90;;;;;;5014937;28;20042;-72
2022/12/30 02:34:35;;;;;;;9.82;1.63;;;5.70;99.90;;;;;;5013349;28;20041;-72
2022/12/30 02:37:30;;;;;;;10.30;1.80;;;5.70;99.90;;;;;;5003474;28;20414;-71
2022/12/30 02:40:09;;;;;;;5.63;1.17;;;5.60;99.90;;;;;;5005629;28;20131;-72
2022/12/30 02:45:40;;;;;;;9.52;1.67;;;5.60;99.90;;;;;;5014873;28;20088;-71
2022/12/30 02:48:12;;;;;;;6.57;1.17;;;5.70;99.90;;;;;;5015621;28;20038;-73
2022/12/30 02:53:29;;;;;;;7.82;1.60;;;5.70;99.90;;;;;;5021420;28;20095;-71
2022/12/30 02:55:55;;;;;;;7.50;1.50;;;5.60;99.90;;;;;;5023062;28;20561;-71
2022/12/30 02:58:23;;;;;;;11.32;1.77;;;5.60;99.90;;;;;;5020037;28;20161;-71
2022/12/30 03:04:16;;;;;;;13.38;2.03;;;5.70;99.90;;;;;;5021105;28;20040;-71
2022/12/30 03:06:44;;;;;;;;;;;5.60;99.90;;;;;;5019615;28;20041;-73
2022/12/30 03:11:12;;;;;;;12.95;2.33;;;5.60;99.90;;;;;;5020731;28;19913;-71
2022/12/30 03:12:42;;;;;;;8.80;1.63;;;5.60;99.90;;;;;;5015338;28;20045;-71
2022/12/30 03:15:16;;;;;;;14.85;2.63;;;5.60;99.90;;;;;;5003948;28;20030;-69
2022/12/30 03:17:43;;;;;;;8.90;1.63;;;5.50;99.90;;;;;;5022886;28;20046;-72
2022/12/30 03:20:14;;;;;;;11.02;2.25;;;5.60;99.90;;;;;;5000513;28;20040;-72
2022/12/30 03:28:15;;;;;;;14.32;2.63;;;5.60;99.90;;;;;;5016989;28;20409;-72
2022/12/30 03:30:58;;;;;;;13.13;2.25;;;5.60;99.90;;;;;;5018273;28;20057;-71
2022/12/30 03:33:27;;;;;;;10.38;2.10;;;5.50;99.90;;;;;;5018100;28;20033;-71
2022/12/30 03:35:57;;;;;;;8.90;2.00;;;5.60;99.90;;;;;;5018485;28;20092;-71
2022/12/30 03:38:26;;;;;;;;;;;5.50;99.90;;;;;;5014878;28;20044;-71
2022/12/30 03:40:55;;;;;;;11.70;1.40;;;5.50;99.90;;;;;;5017537;28;19923;-71
2022/12/30 03:43:22;;;;;;;10.82;1.83;;;5.50;99.90;;;;;;5018761;28;20084;-72
2022/12/30 03:45:48;;;;;;;9.18;1.05;;;5.50;99.90;;;;;;5020988;28;20068;-71
2022/12/30 03:48:13;;;;;;;17.00;1.60;;;5.50;99.90;;;;;;5019972;28;20053;-71
2022/12/30 03:50:39;;;;;;;9.38;1.92;;;5.50;99.90;;;;;;5023048;28;20483;-70
2022/12/30 03:53:04;;;;;;;14.65;1.70;;;5.50;99.90;;;;;;5020105;28;20030;-71
2022/12/30 03:55:30;;;;;;;14.57;3.28;;;5.50;99.90;;;;;;5021137;28;20043;-71
2022/12/30 03:57:55;;;;;;;15.48;1.67;;;5.50;99.90;;;;;;5018145;28;20545;-72
2022/12/30 04:00:22;;;;;;;12.07;2.00;;;5.50;99.90;;;;;;5020834;28;20029;-72
2022/12/30 04:02:48;;;;;;;12.32;1.67;;;5.50;99.90;;;;;;5018166;28;20464;-71
2022/12/30 04:05:13;;;;;;;10.02;1.88;;;5.50;99.90;;;;;;5019986;28;20036;-73
2022/12/30 04:07:39;;;;;;;15.00;3.03;;;5.50;99.90;;;;;;5019747;28;20040;-72
2022/12/30 04:10:05;;;;;;;7.90;1.42;;;5.50;99.90;;;;;;5019597;28;20067;-71
2022/12/30 04:12:31;;;;;;;9.15;2.03;;;5.50;99.90;;;;;;5018377;28;20121;-72
2022/12/30 04:14:57;;;;;;;13.32;1.27;;;5.50;99.90;;;;;;5020783;28;20113;-71
2022/12/30 04:17:23;;;;;;;19.20;1.65;;;5.50;99.90;;;;;;5017733;28;20053;-71
2022/12/30 04:19:48;;;;;;;5.57;1.70;;;5.50;99.90;;;;;;5020941;28;20034;-71
2022/12/30 04:22:14;;;;;;;11.50;2.50;;;5.50;99.90;;;;;;5017701;28;20745;-71
2022/12/30 04:24:39;;;;;;;9.80;1.85;;;5.50;99.90;;;;;;5019344;28;20126;-70
2022/12/30 04:27:05;;;;;;;11.60;1.23;;;5.50;99.90;;;;;;5015859;28;20040;-71
2022/12/30 04:29:31;;;;;;;8.98;1.48;;;5.50;99.90;;;;;;5019582;28;20041;-71
2022/12/30 04:31:56;;;;;;;14.98;2.03;;;5.40;99.90;;;;;;5016264;28;20042;-70
2022/12/30 04:34:22;;;;;;;6.75;1.13;;;5.40;99.90;;;;;;5003209;28;20033;-71
2022/12/30 04:36:48;;;;;;;16.50;2.50;;;5.40;99.90;;;;;;5017591;28;20037;-71
2022/12/30 04:39:13;;;;;;;12.43;1.65;;;5.40;99.90;;;;;;5020003;28;20340;-71
2022/12/30 04:41:39;;;;;;;10.93;2.00;;;5.40;99.90;;;;;;5018623;28;20034;-72
2022/12/30 04:44:05;;;;;;;11.75;1.75;;;5.40;99.90;;;;;;5018903;28;20038;-72
2022/12/30 04:46:32;;;;;;;9.20;1.90;;;5.30;99.90;;;;;;5019544;28;20045;-71
2022/12/30 04:48:57;;;;;;;12.02;3.50;;;5.20;99.90;;;;;;5017681;28;20026;-72
2022/12/30 04:51:24;;;;;;;5.95;1.13;;;5.30;99.90;;;;;;5020811;28;20099;-72
2022/12/30 04:53:50;;;;;;;10.80;2.38;;;5.30;99.90;;;;;;5020484;28;20080;-71
2022/12/30 04:56:15;;;;;;;11.18;2.00;;;5.20;99.90;;;;;;5017242;28;20053;-71
2022/12/30 04:58:41;;;;;;;9.18;1.63;;;5.20;99.90;;;;;;5019339;28;20045;-72
2022/12/30 05:01:07;;;;;;;9.80;1.33;;;5.10;99.90;;;;;;5017516;28;20026;-71
2022/12/30 05:03:32;;;;;;;6.55;1.08;;;5.10;99.90;;;;;;5016391;28;20049;-72
2022/12/30 05:05:58;;;;;;;3.92;1.30;;;5.10;99.90;;;;;;5017654;28;20073;-71
2022/12/30 05:08:23;;;;;;;12.02;3.15;;;5.00;99.90;;;;;;5020403;28;20083;-71
2022/12/30 05:10:49;;;;;;;9.82;1.20;;;5.00;99.90;;;;;;5018292;28;20377;-71
2022/12/30 05:13:14;;;;;;;9.32;1.80;;;5.00;99.90;;;;;;5017074;28;20026;-71
2022/12/30 05:15:40;;;;;;;14.10;1.58;;;4.90;99.90;;;;;;5015631;28;20437;-72
2022/12/30 05:18:06;;;;;;;9.00;1.20;;;4.90;99.90;;;;;;5012194;28;20061;-71
2022/12/30 05:20:32;;;;;;;10.38;2.35;;;4.90;99.90;;;;;;5018835;28;20692;-72
2022/12/30 05:22:57;;;;;;;8.45;1.50;;;4.90;99.90;;;;;;5017292;28;20049;-72
2022/12/30 05:28:07;;;;;;;13.05;1.38;;;4.90;99.90;;;;;;5019129;28;20561;-70
2022/12/30 05:30:33;;;;;;;8.48;2.25;;;4.90;99.90;;;;;;5017568;28;20037;-71
2022/12/30 05:32:59;;;;;;;9.80;1.40;;;4.90;99.90;;;;;;5016417;28;20521;-71
2022/12/30 05:35:24;;;;;;;10.60;3.13;;;4.90;99.90;;;;;;5019167;28;20065;-71
2022/12/30 05:37:50;;;;;;;6.75;1.17;;;4.90;99.90;;;;;;5016305;28;20042;-71
2022/12/30 05:40:16;;;;;;;9.93;1.60;;;4.90;99.90;;;;;;5019239;28;20057;-71
2022/12/30 05:42:41;;;;;;;11.00;1.77;;;4.90;99.90;;;;;;5016646;28;20041;-70
2022/12/30 05:45:08;;;;;;;12.98;2.30;;;4.90;99.90;;;;;;5018926;28;20034;-71
2022/12/30 05:47:34;;;;;;;8.20;1.50;;;5.00;99.90;;;;;;5018322;28;20048;-72
2022/12/30 05:49:59;;;;;;;5.45;1.40;;;5.00;99.90;;;;;;5017508;28;20402;-73
2022/12/30 05:52:25;;;;;;;12.23;2.15;;;5.00;99.90;;;;;;5019176;28;20037;-72
2022/12/30 05:54:50;;;;;;;13.02;2.83;;;5.00;99.90;;;;;;5015843;28;20406;-71
2022/12/30 05:57:16;;;;;;;14.50;1.45;;;5.00;99.90;;;;;;5019305;28;20048;-71
2022/12/30 05:59:42;;;;;;;9.85;1.65;;;5.00;99.90;;;;;;5015815;28;20445;-72
2022/12/30 06:02:07;;;;;;;12.90;1.88;;;5.00;99.90;;;;;;5009907;28;20083;-71
2022/12/30 06:04:33;;;;;;;17.73;1.60;;;5.00;99.90;;;;;;4992431;28;20079;-71
2022/12/30 06:06:58;;;;;;;14.10;1.60;;;5.10;99.90;;;;;;5020083;28;20029;-70
2022/12/30 06:09:24;;;;;;;10.93;2.33;;;5.00;99.90;;;;;;5015522;28;20120;-72
2022/12/30 06:11:50;;;;;;;12.98;1.92;;;5.00;99.90;;;;;;4999064;28;20394;-71
2022/12/30 06:14:17;;;;;;;7.82;1.70;;;5.00;99.90;;;;;;5013953;28;20046;-72
2022/12/30 06:16:43;;;;;;;10.30;1.92;;;5.00;99.90;;;;;;5006729;28;20059;-70
2022/12/30 06:19:09;;;;;;;15.27;1.55;;;5.00;99.90;;;;;;5004546;28;20051;-71
2022/12/30 06:21:35;;;;;;;14.85;2.08;;;5.00;99.90;;;;;;5016587;28;20042;-72
2022/12/30 06:24:02;;;;;;;14.05;1.38;;;5.00;99.90;;;;;;5014734;28;20066;-71
2022/12/30 06:26:27;;;;;;;14.85;1.52;;;5.00;99.90;;;;;;5016894;28;20042;-72
2022/12/30 06:28:53;;;;;;;13.80;2.17;;;5.00;99.90;;;;;;5018163;28;20079;-71
2022/12/30 06:31:18;;;;;;;5.65;1.63;;;5.10;99.90;;;;;;5011852;28;20120;-72
2022/12/30 06:33:44;;;;;;;8.55;1.20;;;5.10;99.90;;;;;;5014519;28;20042;-71
2022/12/30 06:36:10;;;;;;;8.32;1.75;;;5.10;99.90;;;;;;5017633;28;20113;-71
2022/12/30 06:38:36;;;;;;;14.23;2.42;;;5.10;99.90;;;;;;5013944;28;20483;-72
2022/12/30 06:41:02;;;;;;;7.25;1.23;;;5.10;99.90;;;;;;5015762;28;20119;-71
2022/12/30 06:43:28;;;;;;;10.55;2.17;;;5.10;99.90;;;;;;5015494;28;20521;-71
2022/12/30 06:45:53;;;;;;;6.25;1.95;;;5.10;99.90;;;;;;5011870;28;20030;-70
2022/12/30 06:48:19;;;;;;;10.40;2.28;;;5.10;99.90;;;;;;5001421;28;20026;-71
2022/12/30 06:50:45;;;;;;;6.97;1.92;;;5.20;99.90;;;;;;5004364;28;20610;-71
2022/12/30 06:53:10;;;;;;;10.75;1.27;;;5.10;99.90;;;;;;5004085;28;20067;-71
2022/12/30 06:55:36;;;;;;;17.17;2.10;;;5.10;99.90;;;;;;5005011;28;20492;-70
2022/12/30 06:58:03;;;;;;;11.07;1.55;;;5.10;99.90;;;;;;5008044;28;20903;-72
2022/12/30 07:00:30;;;;;;;6.15;1.65;;;5.10;99.90;;;;;;5006629;28;20034;-69
2022/12/30 07:02:56;;;;;;;9.75;2.08;;;5.10;99.90;;;;;;5007217;28;20067;-72
2022/12/30 07:05:21;;;;;;;13.02;1.40;;;5.20;99.90;;;;;;5008883;28;20022;-71
2022/12/30 07:07:47;;;;;;;9.00;1.88;;;5.10;99.90;;;;;;5013572;28;20120;-71
2022/12/30 07:10:12;;;;;;;12.15;2.53;;;5.20;99.90;;;;;;5007186;28;20690;-71
2022/12/30 07:12:38;;;;;;;11.57;1.70;;;5.20;99.90;;;;;;5007036;28;20025;-73
2022/12/30 07:15:04;;;;;;;5.00;1.60;;;5.20;99.90;;;;;;5009160;28;20572;-72
2022/12/30 07:17:30;;;;;;;7.10;1.52;;;5.10;99.90;;;;;;5005286;28;20125;-70
2022/12/30 07:19:55;;;;;;;17.35;3.60;;;5.20;99.90;;;;;;5014787;28;20049;-71
2022/12/30 07:22:21;;;;;;;9.82;2.38;;;5.20;99.90;;;;;;5006639;28;20042;-71
2022/12/30 07:24:47;;;;;;;10.80;1.88;;;5.20;99.90;;;;;;5011558;28;20667;-72
2022/12/30 07:27:13;;;;;;;9.52;1.52;;;5.20;99.90;;;;;;5011538;28;20034;-71
2022/12/30 07:29:39;;;;;;;17.90;2.90;;;5.20;99.90;;;;;;5012623;28;20034;-72
2022/12/30 07:32:08;;;;;;;18.65;2.20;;;5.20;99.90;;;;;;5009186;28;20044;-71
2022/12/30 07:34:36;;;;;;;9.98;1.55;;;5.20;99.90;;;;;;5012275;28;20050;-71
2022/12/30 07:37:03;;;;;;;9.27;2.47;;;5.20;99.90;;;;;;5007124;28;20080;-71
2022/12/30 07:39:29;;;;;;;7.88;1.50;;;5.30;99.90;;;;;;5014163;28;20746;-70
2022/12/30 07:41:55;;;;;;;14.20;1.85;;;5.30;99.90;;;;;;5009504;28;20041;-71
2022/12/30 07:44:21;;;;;;;8.38;1.63;;;5.30;99.90;;;;;;5013295;28;20061;-71
2022/12/30 07:46:47;;;;;;;9.40;1.73;;;5.30;99.90;;;;;;5014300;28;20037;-72
2022/12/30 07:49:12;;;;;;;12.05;2.47;;;5.30;99.90;;;;;;5015346;28;20045;-73
2022/12/30 07:51:39;;;;;;;6.80;1.50;;;5.30;99.90;;;;;;5021010;28;20103;-72
2022/12/30 07:54:04;;;;;;;7.18;2.05;;;5.30;99.90;;;;;;5009324;28;20041;-71
2022/12/30 07:56:30;;;;;;;11.88;1.58;;;5.30;99.90;;;;;;5009599;28;20033;-71
2022/12/30 07:58:56;;;;;;;18.05;1.60;;;5.30;99.90;;;;;;5016712;28;20037;-71
2022/12/30 08:01:22;;;;;;;11.30;1.52;;;5.30;99.90;;;;;;5017768;28;20026;-71
2022/12/30 08:03:47;;;;;;;6.18;1.20;;;5.30;99.90;;;;;;5008645;28;20101;-70
2022/12/30 08:06:15;;;;;;;4.72;1.95;;;5.50;99.90;;;;;;5021059;28;20038;-72
2022/12/30 08:08:41;;;;;;;10.82;1.52;;;5.40;99.90;;;;;;5021970;28;20025;-71
2022/12/30 08:11:08;;;;;;;10.15;2.47;;;5.40;99.90;;;;;;5017535;28;20029;-71
2022/12/30 08:13:37;;;;;;;6.03;1.25;;;5.40;99.90;;;;;;5011920;28;20033;-71
2022/12/30 08:16:20;;;;;;;9.32;1.83;;;5.50;99.90;;;;;;5017501;28;20045;-71
2022/12/30 08:18:46;;;;;;;7.00;2.05;;;5.50;99.90;;;;;;5013699;28;20654;-72
2022/12/30 08:21:16;;;;;;;19.38;2.08;;;5.60;99.90;;;;;;5002762;28;20061;-72
2022/12/30 08:23:44;;;;;;;12.25;2.25;;;5.60;99.90;;;;;;5013384;28;20038;-71
2022/12/30 08:26:14;;;;;;;13.05;2.72;;;5.60;99.90;;;;;;5010651;28;20714;-72
2022/12/30 08:28:40;;;;;;;8.32;1.83;;;5.60;99.90;;;;;;5013490;28;20116;-71
2022/12/30 08:31:15;;;;;;;5.95;1.73;;;5.60;99.90;;;;;;5002641;28;20121;-72
2022/12/30 08:33:41;;;;;;;9.45;2.47;;;5.70;99.90;;;;;;5012507;28;20034;-72
2022/12/30 08:36:09;;;;;;;9.85;1.50;;;5.70;99.90;;;;;;5013813;28;20546;-71
2022/12/30 08:38:41;;;;;;;5.72;1.52;;;5.70;99.90;;;;;;5020423;28;20041;-70
2022/12/30 08:41:18;;;;;;;8.10;2.28;;;5.70;99.90;;;;;;5013186;28;20026;-72
2022/12/30 08:43:44;;;;;;;13.23;2.45;;;5.80;99.90;;;;;;5016178;28;20034;-72
2022/12/30 08:46:09;;;;;;;8.32;2.20;;;5.80;99.90;;;;;;5017624;28;20528;-72
2022/12/30 08:48:35;;;;;;;9.60;1.73;;;5.90;99.90;;;;;;5020447;28;20497;-71
2022/12/30 08:51:01;;;;;;;14.55;1.52;;;5.90;99.90;;;;;;4998234;28;20069;-71
2022/12/30 08:53:27;;;;;;;9.75;1.77;;;5.90;99.90;;;;;;5018929;28;20041;-70
2022/12/30 08:56:22;;;;;;;10.35;1.98;;;6.00;99.90;;;;;;5018910;28;20026;-73
2022/12/30 08:58:49;;;;;;;11.30;1.75;;;6.10;99.90;;;;;;5014613;28;20038;-69
2022/12/30 09:01:29;;;;;;;13.05;1.50;;;6.10;99.90;;;;;;5013487;28;20367;-72
2022/12/30 09:03:57;;;;;;;12.40;2.25;;;6.20;99.90;;;;;;5018062;28;20025;-71
2022/12/30 09:06:26;;;;;;;4.57;1.70;;;6.30;99.90;;;;;;5018196;28;20033;-71
2022/12/30 09:08:52;;;;;;;12.48;2.40;;;6.30;99.90;;;;;;5019085;28;20043;-72
2022/12/30 09:11:23;;;;;;;15.73;2.75;;;6.30;99.90;;;;;;5018068;28;20281;-72
2022/12/30 09:13:50;;;;;;;5.53;2.10;;;6.30;99.90;;;;;;5017968;28;20036;-71
2022/12/30 09:16:18;;;;;;;9.68;2.08;;;6.40;99.90;;;;;;5017442;28;20819;-71
2022/12/30 09:18:44;;;;;;;12.80;1.55;;;6.50;99.90;;;;;;5019199;28;20030;-71
2022/12/30 09:21:09;;;;;;;7.13;1.00;;;6.50;99.90;;;;;;5016567;28;20034;-72
2022/12/30 09:23:35;;;;;;;7.60;1.27;;;6.60;99.90;;;;;;5018964;28;20025;-71
2022/12/30 09:26:02;;;;;;;3.15;1.00;;;6.60;99.90;;;;;;5016384;28;20029;-72
2022/12/30 09:28:27;;;;;;;8.63;1.00;;;6.70;99.90;;;;;;5017103;28;20036;-71
2022/12/30 09:30:53;;;;;;;4.20;0.88;;;6.70;99.90;;;;;;5017808;28;20112;-72
2022/12/30 09:33:19;;;;;;;6.30;1.63;;;6.80;99.90;;;;;;5014643;28;20064;-73
2022/12/30 09:35:44;;;;;;;12.00;1.50;;;6.80;99.90;;;;;;5014040;28;20041;-72
2022/12/30 09:38:10;;;;;;;6.63;0.75;;;6.80;99.90;;;;;;5000982;28;20045;-72
2022/12/30 09:40:56;;;;;;;4.28;1.05;;;6.90;99.90;;;;;;5015964;28;20033;-73
2022/12/30 09:43:45;;;;;;;6.72;0.93;;;7.00;99.90;;;;;;5013783;28;20038;-71
2022/12/30 09:46:41;;;;;;;7.93;1.08;;;7.00;99.90;;;;;;5013701;28;20117;-72
2022/12/30 09:49:33;;;;;;;3.22;0.85;;;7.00;99.90;;;;;;4997198;28;20776;-71
2022/12/30 09:52:16;;;;;;;3.72;0.82;;;7.00;99.90;;;;;;4983726;28;20045;-71
2022/12/30 09:54:50;;;;;;;2.78;0.80;;;7.10;99.90;;;;;;5013508;28;20394;-72
2022/12/30 09:57:31;;;;;;;4.35;0.73;;;7.10;99.90;;;;;;5016113;28;20029;-73
2022/12/30 10:00:12;;;;;;;5.30;1.33;;;7.10;99.90;;;;;;5001277;28;20393;-73
2022/12/30 10:03:05;;;;;;;2.65;0.73;;;7.20;99.90;;;;;;5014087;28;20030;-72
2022/12/30 10:05:57;;;;;;;3.90;1.48;;;7.20;99.90;;;;;;5005601;28;20489;-72
2022/12/30 10:09:00;;;;;;;5.93;0.93;;;7.20;99.90;;;;;;5008167;28;20033;-73
2022/12/30 10:11:47;;;;;;;3.42;0.68;;;7.30;99.90;;;;;;5017549;28;20056;-72
2022/12/30 10:14:40;;;;;;;2.80;1.52;;;7.30;99.90;;;;;;5013518;28;20045;-72
2022/12/30 10:17:20;;;;;;;2.63;0.70;;;7.40;99.90;;;;;;5012603;28;20068;-71
2022/12/30 10:19:51;;;;;;;8.75;1.27;;;7.40;99.90;;;;;;5016593;28;20442;-71
2022/12/30 10:22:45;;;;;;;6.32;0.88;;;7.40;99.90;;;;;;5017033;28;20124;-71
2022/12/30 10:25:13;;;;;;;4.28;0.60;;;7.50;99.90;;;;;;5014687;28;20112;-72
2022/12/30 10:27:48;;;;;;;7.25;0.90;;;7.50;99.90;;;;;;5016039;28;20061;-73
2022/12/30 10:30:17;;;;;;;2.83;0.70;;;7.50;99.90;;;;;;5018020;28;20068;-72
2022/12/30 10:32:59;;;;;;;4.03;1.13;;;7.60;99.90;;;;;;5012986;28;20061;-72
2022/12/30 10:35:29;;;;;;;5.45;1.00;;;7.60;99.90;;;;;;5016213;28;20045;-72
2022/12/30 10:38:16;;;;;;;6.72;1.17;;;7.60;99.90;;;;;;5015750;28;20092;-72
2022/12/30 10:41:09;;;;;;;5.18;0.80;;;7.70;99.90;;;;;;5013205;28;20058;-72
2022/12/30 10:43:47;;;;;;;6.82;1.33;;;7.70;99.90;;;;;;5012940;28;20145;-72
2022/12/30 10:46:32;;;;;;;3.38;0.80;;;7.70;99.90;;;;;;5017258;28;20049;-72
2022/12/30 10:49:16;;;;;;;2.60;0.77;;;7.70;99.90;;;;;;5019485;28;20040;-72
2022/12/30 10:51:42;;;;;;;3.78;0.45;;;7.80;99.90;;;;;;5018988;28;20045;-73
2022/12/30 10:54:09;;;;;;;4.32;0.60;;;7.80;99.90;;;;;;5016681;28;20060;-71
2022/12/30 10:56:36;;;;;;;4.95;0.38;;;7.80;99.90;;;;;;5019116;28;20037;-71
2022/12/30 10:59:27;;;;;;;3.55;0.60;;;7.80;99.90;;;;;;5015520;28;20072;-72
2022/12/30 11:02:09;;;;;;;1.48;0.63;;;7.80;99.90;;;;;;5004179;28;20060;-70
2022/12/30 11:04:38;;;;;;;3.00;0.50;;;7.80;99.90;;;;;;5012218;28;20467;-72
2022/12/30 11:07:11;;;;;;;4.13;0.50;;;7.80;99.90;;;;;;5018678;28;20508;-73
2022/12/30 11:09:36;;;;;;;3.22;0.70;;;7.90;99.90;;;;;;5014978;28;20052;-71
2022/12/30 11:15:06;;;;;;;1.25;0.30;;;7.90;99.90;;;;;;5018842;28;20146;-72
2022/12/30 11:17:40;;;;;;;3.35;0.60;;;7.90;99.90;;;;;;5015557;28;20133;-72
2022/12/30 11:20:19;;;;;;;4.15;0.80;;;7.90;99.90;;;;;;5016113;28;20676;-72
2022/12/30 11:22:50;;;;;;;8.20;0.75;;;7.90;99.90;;;;;;5020377;28;20033;-72
2022/12/30 11:25:37;;;;;;;3.50;0.57;;;8.00;99.90;;;;;;5020937;28;20037;-72
2022/12/30 11:28:18;;;;;;;2.15;0.65;;;8.00;99.90;;;;;;5016346;28;20226;-73
2022/12/30 11:31:03;;;;;;;;;;;8.00;99.90;;;;;;5015006;28;20045;-71
2022/12/30 11:34:00;;;;;;;4.38;0.50;;;8.10;99.90;;;;;;5004672;28;20012;-72
2022/12/30 11:36:28;;;;;;;2.40;0.38;;;8.20;99.90;;;;;;5004278;28;20060;-72
2022/12/30 11:39:04;;;;;;;6.35;1.23;;;8.20;99.90;;;;;;5018833;28;20545;-69
2022/12/30 11:41:31;;;;;;;7.93;0.75;;;8.20;99.90;;;;;;5014948;28;20467;-71
2022/12/30 11:43:59;;;;;;;6.82;1.02;;;8.20;99.90;;;;;;5016407;28;20029;-72
2022/12/30 11:46:30;;;;;;;2.72;0.40;;;8.30;99.90;;;;;;5018576;28;20057;-72
2022/12/30 11:49:01;;;;;;;5.15;0.98;;;8.30;99.90;;;;;;5014280;28;20022;-71
2022/12/30 11:51:33;;;;;;;9.85;0.80;;;8.30;99.90;;;;;;5021643;28;20033;-72
2022/12/30 11:54:05;;;;;;;5.53;0.47;;;8.40;99.90;;;;;;5014862;28;20048;-71
2022/12/30 11:56:30;;;;;;;4.82;0.52;;;8.40;99.90;;;;;;5015006;28;20498;-73
2022/12/30 11:59:05;;;;;;;13.82;0.98;;;8.40;99.90;;;;;;5021924;28;20060;-72
2022/12/30 12:01:44;;;;;;;9.68;1.30;;;8.40;99.90;;;;;;5014212;28;20029;-72
2022/12/30 12:04:33;;;;;;;5.22;1.15;;;8.50;99.90;;;;;;5008635;28;20068;-71
2022/12/30 12:06:59;;;;;;;6.75;1.58;;;8.50;99.90;;;;;;5014366;28;20038;-71
2022/12/30 12:10:03;;;;;;;10.77;1.10;;;8.50;99.90;;;;;;5013082;28;20036;-72
2022/12/30 12:12:41;;;;;;;12.82;1.50;;;8.40;99.90;;;;;;4995733;28;20057;-72
2022/12/30 12:15:23;;;;;;;5.60;0.98;;;8.40;99.90;;;;;;4998938;28;20033;-72
2022/12/30 12:17:54;;;;;;;7.18;1.38;;;8.40;99.90;;;;;;4999561;28;20129;-71
2022/12/30 12:20:35;;;;;;;4.18;1.02;;;8.40;99.90;;;;;;5014719;28;20029;-71
2022/12/30 12:23:22;;;;;;;5.10;0.80;;;8.30;99.90;;;;;;5014248;28;20029;-74
2022/12/30 12:26:01;;;;;;;4.80;0.77;;;8.30;99.90;;;;;;5007129;28;20034;-71
2022/12/30 12:28:26;;;;;;;8.32;1.10;;;8.20;99.90;;;;;;5004265;28;20053;-71
2022/12/30 12:31:12;;;;;;;6.28;0.52;;;8.20;99.90;;;;;;5006825;28;20033;-73
2022/12/30 12:33:37;;;;;;;5.10;0.73;;;8.20;99.90;;;;;;5008342;28;20092;-72
2022/12/30 12:36:25;;;;;;;11.82;2.78;;;8.10;99.90;;;;;;5006885;28;20042;-71
2022/12/30 12:39:09;;;;;;;9.32;0.80;;;8.10;99.90;;;;;;5006574;28;20084;-72
2022/12/30 12:41:45;;;;;;;3.67;0.68;;;8.10;99.90;;;;;;5005003;28;20114;-72
2022/12/30 12:44:19;;;;;;;4.90;0.88;;;8.10;99.90;;;;;;5007871;28;20068;-70
2022/12/30 12:47:03;;;;;;;4.28;1.10;;;8.10;99.90;;;;;;5006478;28;20379;-72
2022/12/30 12:49:40;;;;;;;11.55;0.90;;;8.10;99.90;;;;;;5003679;28;20120;-72
2022/12/30 12:52:25;;;;;;;9.70;0.70;;;8.10;99.90;;;;;;4988265;28;20568;-73
2022/12/30 12:55:12;;;;;;;7.28;1.52;;;8.10;99.90;;;;;;5006805;28;20053;-71
2022/12/30 12:57:59;;;;;;;4.70;0.75;;;8.10;99.90;;;;;;5005449;28;20076;-71
2022/12/30 13:00:49;;;;;;;5.35;1.40;;;8.20;99.90;;;;;;5002897;28;20054;-71
2022/12/30 13:03:32;;;;;;;15.73;0.93;;;8.10;99.90;;;;;;5004733;28;20099;-71
2022/12/30 13:06:19;;;;;;;6.60;0.80;;;8.20;99.90;;;;;;5005836;28;20096;-72
2022/12/30 13:09:03;;;;;;;9.88;1.33;;;8.20;99.90;;;;;;5007164;28;20073;-71
2022/12/30 13:12:08;;;;;;;7.28;1.05;;;8.20;99.90;;;;;;5002501;28;20042;-71
2022/12/30 13:14:47;;;;;;;9.95;1.55;;;8.20;99.90;;;;;;5004613;28;20041;-70
2022/12/30 13:17:33;;;;;;;8.88;1.83;;;8.20;99.90;;;;;;5004939;28;20506;-70
2022/12/30 13:20:13;;;;;;;6.03;1.27;;;8.20;99.90;;;;;;5005285;28;20045;-71
2022/12/30 13:22:39;;;;;;;6.85;1.40;;;8.20;99.90;;;;;;5012999;28;20449;-73
2022/12/30 13:25:29;;;;;;;5.97;1.55;;;8.20;99.90;;;;;;5016526;28;20073;-72
2022/12/30 13:27:56;;;;;;;8.30;1.25;;;8.20;99.90;;;;;;5015163;28;20079;-71
2022/12/30 13:30:25;;;;;;;3.10;1.15;;;8.20;99.90;;;;;;5010884;28;20061;-72
2022/12/30 13:33:03;;;;;;;3.63;0.50;;;8.20;99.90;;;;;;5010611;28;20057;-72
2022/12/30 13:35:54;;;;;;;10.68;1.75;;;8.20;99.90;;;;;;5012042;28;20040;-71
2022/12/30 13:38:48;;;;;;;5.07;1.95;;;8.30;99.90;;;;;;5011836;28;20069;-72
2022/12/30 13:41:19;;;;;;;3.47;0.65;;;8.20;99.90;;;;;;5001526;28;20498;-72
2022/12/30 13:43:54;;;;;;;6.65;0.70;;;8.20;99.90;;;;;;5016086;28;20038;-71
2022/12/30 13:46:26;;;;;;;7.05;0.63;;;8.20;99.90;;;;;;5013678;28;20022;-72
2022/12/30 13:49:14;;;;;;;6.57;0.80;;;8.20;99.90;;;;;;4995146;28;20057;-71
2022/12/30 13:51:51;;;;;;;3.78;0.60;;;8.30;99.90;;;;;;5001040;28;20040;-73
2022/12/30 13:54:18;;;;;;;3.20;0.57;;;8.30;99.90;;;;;;5018629;28;20138;-71
2022/12/30 13:56:49;;;;;;;2.97;0.40;;;8.30;99.90;;;;;;5016411;28;20401;-71
2022/12/30 13:59:33;;;;;;;8.55;0.90;;;8.40;99.90;;;;;;5017325;28;20032;-72
2022/12/30 14:02:11;;;;;;;2.25;1.00;;;8.40;99.90;;;;;;4996575;28;20111;-70
2022/12/30 14:04:57;;;;;;;2.30;0.20;;;8.40;99.90;;;;;;5016922;28;20649;-71
2022/12/30 14:07:38;;;;;;;8.38;1.17;;;8.40;99.90;;;;;;5012254;28;20022;-71
2022/12/30 14:10:15;;;;;;;;;;;8.40;99.90;;;;;;5017152;28;20072;-71
2022/12/30 14:12:43;;;;;;;2.28;0.40;;;8.40;99.90;;;;;;5017758;28;19945;-72
2022/12/30 14:15:33;;;;;;;6.50;0.45;;;8.40;99.90;;;;;;5017325;28;20045;-70